Terminal Aerodrome Forecast
Issued by NWS Cleveland, OH

Home | Current Version | Previous Version | Graphics & Text | Print | Product List | Glossary On
Versions: 1 2 3 4 5 6 7 8 9 10 11 12 13 14 15 16 17 18 19
000
FTUS41 KCLE 211728
TAFCAK
TAF
KCAK 211728Z 2118/2218 18010KT P6SM OVC100
     FM220000 20005KT P6SM OVC050
     FM220700 20005KT 5SM BR OVC025
     FM221100 18003KT 3SM BR OVC008
     FM221400 20006KT 6SM BR BKN008 OVC015=

USA.gov is the U.S. government's official web portal to all federal, state and local government web resources and services.